Time;durP1;ratioP1;P1;durP2;ratioP2;P2;SDS_P1;SDS_P2;PMS_P1;PMS_P2;Temp;Humidity;BMP_temperature;BMP_pressure;BME280_temperature;BME280_humidity;BME280_pressure;Samples;Min_cycle;Max_cycle;Signal;HPM_P1;HPM_P2
2022/09/20 00:01:02;;;;;;;;;;;14.60;99.90;;;;;;7342537;19;112307;-82
2022/09/20 00:03:29;;;;;;;;;;;14.60;99.90;;;;;;7342294;19;110147;-84
2022/09/20 00:05:59;;;;;;;;;;;14.60;99.90;;;;;;7342941;19;108882;-83
2022/09/20 00:08:26;;;;;;;;;;;14.60;99.90;;;;;;7344438;19;109918;-82
2022/09/20 00:13:29;;;;;;;;;;;14.70;99.90;;;;;;7338730;19;111470;-82
2022/09/20 00:15:56;;;;;;;;;;;14.70;99.90;;;;;;7344574;19;108980;-83
2022/09/20 00:18:23;;;;;;;;;;;14.80;99.90;;;;;;7347273;19;111383;-82
2022/09/20 00:20:50;;;;;;;;;;;14.80;99.90;;;;;;7341342;19;109740;-82
2022/09/20 00:23:17;;;;;;;;;;;14.80;99.90;;;;;;7343477;19;109382;-82
2022/09/20 00:25:45;;;;;;;;;;;14.80;99.90;;;;;;7341283;19;108372;-83
2022/09/20 00:28:12;;;;;;;;;;;14.80;99.90;;;;;;7340882;19;109346;-83
2022/09/20 00:30:39;;;;;;;;;;;14.80;99.90;;;;;;7343713;19;110144;-83
2022/09/20 00:33:06;;;;;;;;;;;14.80;99.90;;;;;;7343733;19;108685;-83
2022/09/20 00:35:33;;;;;;;;;;;14.80;99.90;;;;;;7345586;19;109350;-82
2022/09/20 00:38:00;;;;;;;;;;;14.80;99.90;;;;;;7341148;19;109147;-82
2022/09/20 00:40:27;;;;;;;;;;;14.80;99.90;;;;;;7345649;19;108892;-82
2022/09/20 00:42:54;;;;;;;;;;;14.70;99.90;;;;;;7342868;19;109304;-84
2022/09/20 00:45:22;;;;;;;;;;;14.80;99.90;;;;;;7341473;19;108393;-82
2022/09/20 00:48:05;;;;;;;;;;;14.70;99.90;;;;;;7343766;19;109662;-81
2022/09/20 00:50:35;;;;;;;;;;;14.70;99.90;;;;;;7344225;19;110410;-82
2022/09/20 00:53:06;;;;;;;;;;;14.70;99.90;;;;;;7341624;19;108697;-82
2022/09/20 00:55:34;;;;;;;;;;;14.70;99.90;;;;;;7339978;19;109394;-82
2022/09/20 00:58:01;;;;;;;;;;;14.70;99.90;;;;;;7341496;19;112015;-82
2022/09/20 01:00:28;;;;;;;;;;;14.70;99.90;;;;;;7337320;19;108463;-82
2022/09/20 01:02:57;;;;;;;;;;;14.60;99.90;;;;;;7345252;19;109298;-82
2022/09/20 01:05:25;;;;;;;;;;;14.70;99.90;;;;;;7339336;19;110944;-82
2022/09/20 01:07:52;;;;;;;;;;;14.70;99.90;;;;;;7341040;19;111167;-82
2022/09/20 01:10:19;;;;;;;;;;;14.70;99.90;;;;;;7339176;19;109649;-81
2022/09/20 01:12:47;;;;;;;;;;;14.70;99.90;;;;;;7338921;19;108439;-82
2022/09/20 01:15:14;;;;;;;;;;;14.70;99.90;;;;;;7339404;19;112737;-81
2022/09/20 01:17:43;;;;;;;;;;;14.70;99.90;;;;;;7339505;19;109422;-82
2022/09/20 01:20:14;;;;;;;;;;;14.70;99.90;;;;;;7339746;19;108788;-82
2022/09/20 01:22:59;;;;;;;;;;;14.70;99.90;;;;;;7347933;19;108495;-83
2022/09/20 01:25:40;;;;;;;;;;;14.70;99.90;;;;;;7337946;19;108632;-83
2022/09/20 01:28:07;;;;;;;;;;;14.70;99.90;;;;;;7342153;19;110155;-82
2022/09/20 01:31:00;;;;;;;;;;;14.70;99.90;;;;;;7340293;19;109249;-84
2022/09/20 01:33:43;;;;;;;;;;;14.70;99.90;;;;;;7341308;19;109459;-83
2022/09/20 01:36:12;;;;;;;;;;;14.70;99.90;;;;;;7340073;19;109621;-83
2022/09/20 01:39:03;;;;;;;;;;;14.70;99.90;;;;;;7340172;19;110582;-83
2022/09/20 01:41:39;;;;;;;;;;;14.60;99.90;;;;;;7340932;19;109180;-83
2022/09/20 01:44:27;;;;;;;;;;;14.70;99.90;;;;;;7340017;19;109223;-85
2022/09/20 01:47:20;;;;;;;;;;;14.60;99.90;;;;;;7343763;19;109313;-83
2022/09/20 01:50:16;;;;;;;;;;;14.60;99.90;;;;;;7338891;19;109331;-82
2022/09/20 01:53:02;;;;;;;;;;;14.60;99.90;;;;;;7336983;19;111168;-82
2022/09/20 01:55:48;;;;;;;;;;;14.60;99.90;;;;;;7340323;19;108795;-84
2022/09/20 01:58:25;;;;;;;;;;;14.60;99.90;;;;;;7339664;19;108785;-82
2022/09/20 02:00:55;;;;;;;;;;;14.60;99.90;;;;;;7341860;19;110906;-83
2022/09/20 02:03:31;;;;;;;;;;;14.60;99.90;;;;;;7339009;19;108747;-83
2022/09/20 02:05:58;;;;;;;;;;;14.60;99.90;;;;;;7339460;19;109326;-83
2022/09/20 02:08:34;;;;;;;;;;;14.60;99.90;;;;;;7339021;19;110510;-82
2022/09/20 02:11:04;;;;;;;;;;;14.60;99.90;;;;;;7345003;19;109169;-83
2022/09/20 02:13:31;;;;;;;;;;;14.60;99.90;;;;;;7341003;19;110715;-83
2022/09/20 02:16:19;;;;;;;;;;;14.60;99.90;;;;;;7339590;19;109462;-84
2022/09/20 02:19:05;;;;;;;;;;;14.60;99.90;;;;;;7339772;19;108311;-83
2022/09/20 02:21:35;;;;;;;;;;;14.50;99.90;;;;;;7339871;19;110026;-83
2022/09/20 02:24:15;;;;;;;;;;;14.50;99.90;;;;;;7338844;19;109064;-83
2022/09/20 02:27:01;;;;;;;;;;;14.50;99.90;;;;;;7340171;19;109573;-83
2022/09/20 02:29:36;;;;;;;;;;;14.50;99.90;;;;;;7338863;19;110177;-83
2022/09/20 02:32:23;;;;;;;;;;;14.50;99.90;;;;;;7339938;19;108588;-84
2022/09/20 02:35:10;;;;;;;;;;;14.50;99.90;;;;;;7342444;19;109275;-83
2022/09/20 02:37:52;;;;;;;;;;;14.50;99.90;;;;;;7342416;19;108681;-83
2022/09/20 02:40:37;;;;;;;;;;;14.50;99.90;;;;;;7345774;19;108730;-82
2022/09/20 02:43:04;;;;;;;;;;;14.50;99.90;;;;;;7346674;19;109110;-84
2022/09/20 02:45:47;;;;;;;;;;;14.40;99.90;;;;;;7345177;19;108421;-84
2022/09/20 02:48:16;;;;;;;;;;;14.50;99.90;;;;;;7346689;19;109098;-87
2022/09/20 02:50:49;;;;;;;;;;;14.40;99.90;;;;;;7345765;19;110273;-87
2022/09/20 02:53:19;;;;;;;;;;;14.40;99.90;;;;;;7347290;19;108359;-85
2022/09/20 02:55:52;;;;;;;;;;;14.40;99.90;;;;;;7345635;19;108576;-85
2022/09/20 02:58:22;;;;;;;;;;;14.30;99.90;;;;;;7352604;19;111257;-83
2022/09/20 03:01:01;;;;;;;;;;;14.30;99.90;;;;;;7344491;19;112644;-83
2022/09/20 03:03:31;;;;;;;;;;;14.30;99.90;;;;;;7343672;19;109655;-84
2022/09/20 03:06:17;;;;;;;;;;;14.30;99.90;;;;;;7345731;19;108803;-86
2022/09/20 03:08:46;;;;;;;;;;;14.30;99.90;;;;;;7346103;19;108649;-84
2022/09/20 03:11:23;;;;;;;;;;;14.20;99.90;;;;;;7345491;19;109231;-84
2022/09/20 03:13:59;;;;;;;;;;;14.20;99.90;;;;;;7347915;19;108298;-84
2022/09/20 03:16:38;;;;;;;;;;;14.20;99.90;;;;;;7342357;19;108537;-85
2022/09/20 03:19:14;;;;;;;;;;;14.20;99.90;;;;;;7344191;19;112863;-86
2022/09/20 03:21:53;;;;;;;;;;;14.20;99.90;;;;;;7349938;19;108597;-86
2022/09/20 03:24:39;;;;;;;;;;;14.20;99.90;;;;;;7344112;19;110242;-85
2022/09/20 03:27:13;;;;;;;;;;;14.10;99.90;;;;;;7345036;19;108442;-85
2022/09/20 03:29:54;;;;;;;;;;;14.10;99.90;;;;;;7346406;19;109396;-84
2022/09/20 03:32:24;;;;;;;;;;;14.10;99.90;;;;;;7345403;19;109939;-83
2022/09/20 03:34:51;;;;;;;;;;;14.10;99.90;;;;;;7343815;19;108411;-84
2022/09/20 03:37:38;;;;;;;;;;;14.00;99.90;;;;;;7346631;19;108479;-84
2022/09/20 03:40:32;;;;;;;;;;;14.00;99.90;;;;;;7342411;19;111052;-84
2022/09/20 03:43:04;;;;;;;;;;;14.10;99.90;;;;;;7348688;19;108697;-83
2022/09/20 03:45:52;;;;;;;;;;;14.00;99.90;;;;;;7344972;19;111712;-84
2022/09/20 03:48:42;;;;;;;;;;;14.00;99.90;;;;;;7342835;19;108531;-86
2022/09/20 03:51:09;;;;;;;;;;;14.00;99.90;;;;;;7343654;19;109084;-84
2022/09/20 03:53:42;;;;;;;;;;;14.00;99.90;;;;;;7345579;19;109244;-86
2022/09/20 03:56:18;;;;;;;;;;;14.00;99.90;;;;;;7342361;19;110079;-84
2022/09/20 03:58:48;;;;;;;;;;;14.00;99.90;;;;;;7343747;19;109529;-83
2022/09/20 04:01:15;;;;;;;;;;;14.00;99.90;;;;;;7344240;19;109163;-85
2022/09/20 04:04:01;;;;;;;;;;;14.00;99.90;;;;;;7344169;19;108921;-87
2022/09/20 04:06:43;;;;;;;;;;;14.00;99.90;;;;;;7349056;19;111951;-85
2022/09/20 04:09:13;;;;;;;;;;;14.00;99.90;;;;;;7344135;19;108674;-89
2022/09/20 04:11:49;;;;;;;;;;;13.90;99.90;;;;;;7343754;19;108429;-85
2022/09/20 04:14:19;;;;;;;;;;;13.90;99.90;;;;;;7341036;19;109577;-88
2022/09/20 04:17:12;;;;;;;;;;;13.90;99.90;;;;;;7342799;19;108572;-87
2022/09/20 04:19:45;;;;;;;;;;;13.90;99.90;;;;;;7341801;19;108910;-87
2022/09/20 04:22:13;;;;;;;;;;;13.90;99.90;;;;;;7340008;19;110466;-85
2022/09/20 04:24:46;;;;;;;;;;;13.80;99.90;;;;;;7343340;19;108794;-85
2022/09/20 04:27:13;;;;;;;;;;;13.80;99.90;;;;;;7340484;19;109459;-85
2022/09/20 04:29:56;;;;;;;;;;;13.80;99.90;;;;;;7347340;19;110917;-89
2022/09/20 04:32:26;;;;;;;;;;;13.80;99.90;;;;;;7343184;19;109151;-84
2022/09/20 04:38:15;;;;;;;;;;;13.90;99.90;;;;;;7338426;19;108727;-85
2022/09/20 04:41:11;;;;;;;;;;;13.90;99.90;;;;;;7338735;19;109202;-88
2022/09/20 04:43:51;;;;;;;;;;;13.90;99.90;;;;;;7336225;19;110630;-86
2022/09/20 04:46:41;;;;;;;;;;;13.90;99.90;;;;;;7339152;19;108721;-83
2022/09/20 04:49:21;;;;;;;;;;;13.90;99.90;;;;;;7335825;19;110585;-85
2022/09/20 04:51:51;;;;;;;;;;;13.80;99.90;;;;;;7337911;19;109554;-84
2022/09/20 04:54:52;;;;;;;;;;;13.80;99.90;;;;;;7342518;19;109450;-84
2022/09/20 04:57:38;;;;;;;;;;;13.80;99.90;;;;;;7336118;19;110689;-85
2022/09/20 05:00:17;;;;;;;;;;;13.80;99.90;;;;;;7335295;19;108860;-84
2022/09/20 05:02:50;;;;;;;;;;;13.80;99.90;;;;;;7337447;19;111497;-84
2022/09/20 05:05:20;;;;;;;;;;;13.80;99.90;;;;;;7336052;19;110715;-84
2022/09/20 05:07:59;;;;;;;;;;;13.80;99.90;;;;;;7336956;19;108770;-84
2022/09/20 05:10:39;;;;;;;;;;;13.80;99.90;;;;;;7335795;19;109648;-84
2022/09/20 05:13:28;;;;;;;;;;;13.70;99.90;;;;;;7338362;19;110964;-84
2022/09/20 05:15:58;;;;;;;;;;;13.70;99.90;;;;;;7336475;19;108677;-85
2022/09/20 05:18:25;;;;;;;;;;;13.70;99.90;;;;;;7340789;19;111994;-84
2022/09/20 05:20:58;;;;;;;;;;;13.60;99.90;;;;;;7339477;19;108639;-84
2022/09/20 05:23:28;;;;;;;;;;;13.50;99.90;;;;;;7339403;19;108163;-83
2022/09/20 05:26:07;;;;;;;;;;;13.50;99.90;;;;;;7338334;19;112049;-84
2022/09/20 05:28:48;;;;;;;;;;;13.40;99.90;;;;;;7340079;19;108444;-84
2022/09/20 05:31:23;;;;;;;;;;;13.30;99.90;;;;;;7338566;19;109633;-83
2022/09/20 05:33:56;;;;;;;;;;;13.30;99.90;;;;;;7339783;19;112077;-83
2022/09/20 05:36:44;;;;;;;;;;;13.20;99.90;;;;;;7339878;19;108613;-83
2022/09/20 05:39:30;;;;;;;;;;;13.20;99.90;;;;;;7343525;19;108577;-83
2022/09/20 05:42:08;;;;;;;;;;;13.10;99.90;;;;;;7339718;19;108849;-84
2022/09/20 05:44:54;;;;;;;;;;;13.00;99.90;;;;;;7341733;19;108617;-84
2022/09/20 05:47:26;;;;;;;;;;;13.00;99.90;;;;;;7337009;19;110173;-84
2022/09/20 05:49:53;;;;;;;;;;;13.00;99.90;;;;;;7338808;19;108526;-84
2022/09/20 05:52:23;;;;;;;;;;;13.10;99.90;;;;;;7338722;19;109551;-84
2022/09/20 05:55:11;;;;;;;;;;;13.10;99.90;;;;;;7338541;19;110288;-84
2022/09/20 05:57:59;;;;;;;;;;;13.10;99.90;;;;;;7341594;19;108974;-84
2022/09/20 06:00:30;;;;;;;;;;;13.10;99.90;;;;;;7336391;19;109252;-84
2022/09/20 06:03:16;;;;;;;;;;;13.20;99.90;;;;;;7344902;19;110363;-83
2022/09/20 06:05:43;;;;;;;;;;;13.10;99.90;;;;;;7340601;19;108983;-85
2022/09/20 06:08:10;;;;;;;;;;;13.10;99.90;;;;;;7340134;19;110456;-84
2022/09/20 06:10:40;;;;;;;;;;;13.10;99.90;;;;;;7340786;19;109284;-86
2022/09/20 06:13:23;;;;;;;;;;;13.10;99.90;;;;;;7338217;19;109227;-85
2022/09/20 06:15:58;;;;;;;;;;;13.10;99.90;;;;;;7338739;19;110448;-84
2022/09/20 06:18:44;;;;;;;;;;;13.20;99.90;;;;;;7336265;19;108678;-84
2022/09/20 06:21:14;;;;;;;;;;;13.20;99.90;;;;;;7340018;19;108858;-84
2022/09/20 06:23:41;;;;;;;;;;;13.20;99.90;;;;;;7336893;19;109835;-84
2022/09/20 06:26:22;;;;;;;;;;;13.20;99.90;;;;;;7344712;19;108908;-85
2022/09/20 06:28:51;;;;;;;;;;;13.20;99.90;;;;;;7339192;19;109141;-84
2022/09/20 06:31:24;;;;;;;;;;;13.20;99.90;;;;;;7338542;19;108857;-84
2022/09/20 06:33:54;;;;;;;;;;;13.30;99.90;;;;;;7338770;19;109083;-84
2022/09/20 06:41:58;;;;;;;;;;;13.40;99.90;;;;;;7339327;19;109088;-85
2022/09/20 06:44:25;;;;;;;;;;;13.40;99.90;;;;;;7336862;19;110418;-86
2022/09/20 06:46:53;;;;;;;;;;;13.40;99.90;;;;;;7337419;19;108722;-85
2022/09/20 06:49:20;;;;;;;;;;;13.40;99.90;;;;;;7340348;19;109550;-83
2022/09/20 06:51:51;;;;;;;;;;;13.40;99.90;;;;;;7339724;19;109939;-84
2022/09/20 06:54:19;;;;;;;;;;;13.40;99.90;;;;;;7337099;19;111639;-84
2022/09/20 06:56:47;;;;;;;;;;;13.40;99.90;;;;;;7337486;19;110389;-83
2022/09/20 06:59:14;;;;;;;;;;;13.40;99.90;;;;;;7336737;19;108981;-86
2022/09/20 07:01:42;;;;;;;;;;;13.50;99.90;;;;;;7337404;19;109578;-84
2022/09/20 07:04:09;;;;;;;;;;;13.50;99.90;;;;;;7337117;19;111967;-84
2022/09/20 07:06:36;;;;;;;;;;;13.60;99.90;;;;;;7336205;19;108501;-86
2022/09/20 07:09:03;;;;;;;;;;;13.60;99.90;;;;;;7337662;19;108345;-85
2022/09/20 07:11:32;;;;;;;;;;;13.60;99.90;;;;;;7342011;19;109188;-85
2022/09/20 07:14:00;;;;;;;;;;;13.60;99.90;;;;;;7335651;19;109311;-84
2022/09/20 07:16:27;;;;;;;;;;;13.70;99.90;;;;;;7334834;19;111690;-84
2022/09/20 07:18:55;;;;;;;;;;;13.70;99.90;;;;;;7336969;19;108588;-84
2022/09/20 07:21:22;;;;;;;;;;;13.70;99.90;;;;;;7336405;19;110691;-85
2022/09/20 07:23:50;;;;;;;;;;;13.70;99.90;;;;;;7341703;19;110396;-86
2022/09/20 07:26:21;;;;;;;;;;;13.70;99.90;;;;;;7346022;19;108245;-87
2022/09/20 07:28:48;;;;;;;;;;;13.70;99.90;;;;;;7345719;19;112241;-84
2022/09/20 07:31:17;;;;;;;;;;;13.80;99.90;;;;;;7343496;19;110481;-84
2022/09/20 07:33:44;;;;;;;;;;;13.80;99.90;;;;;;7349595;19;108871;-84
2022/09/20 07:36:12;;;;;;;;;;;13.80;99.90;;;;;;7342884;19;110145;-84
2022/09/20 07:38:39;;;;;;;;;;;13.80;99.90;;;;;;7343389;19;108537;-84
2022/09/20 07:41:06;;;;;;;;;;;13.80;99.90;;;;;;7343850;19;110351;-86
2022/09/20 07:43:33;;;;;;;;;;;13.80;99.90;;;;;;7344000;19;109224;-84
2022/09/20 07:46:01;;;;;;;;;;;13.80;99.90;;;;;;7344444;19;108758;-83
2022/09/20 07:48:29;;;;;;;;;;;13.80;99.90;;;;;;7343318;19;109120;-84
2022/09/20 07:50:57;;;;;;;;;;;13.90;99.90;;;;;;7344589;19;112801;-84
2022/09/20 07:53:24;;;;;;;;;;;14.00;99.90;;;;;;7348526;19;109313;-83
2022/09/20 07:56:02;;;;;;;;;;;14.00;99.90;;;;;;7342797;19;109767;-84
2022/09/20 07:58:29;;;;;;;;;;;14.10;99.90;;;;;;7341982;19;109040;-84
2022/09/20 08:00:58;;;;;;;;;;;14.20;99.90;;;;;;7345395;19;108766;-84
2022/09/20 08:03:25;;;;;;;;;;;14.10;99.90;;;;;;7342004;19;109752;-83
2022/09/20 08:05:57;;;;;;;;;;;14.20;99.90;;;;;;7343091;19;108739;-83
2022/09/20 08:08:24;;;;;;;;;;;14.30;99.90;;;;;;7343947;19;109180;-83
2022/09/20 08:10:51;;;;;;;;;;;14.30;99.90;;;;;;7342495;19;112209;-83
2022/09/20 08:13:18;;;;;;;;;;;14.40;99.90;;;;;;7342932;19;109069;-82
2022/09/20 08:16:06;;;;;;;;;;;14.40;99.90;;;;;;7345892;19;109744;-83
2022/09/20 08:18:34;;;;;;;;;;;14.50;99.90;;;;;;7343173;19;108791;-84
2022/09/20 08:21:07;;;;;;;;;;;14.50;99.90;;;;;;7344433;19;111822;-84
2022/09/20 08:23:34;;;;;;;;;;;14.50;99.90;;;;;;7342585;19;111767;-85
2022/09/20 08:26:02;;;;;;;;;;;14.60;99.90;;;;;;7341922;19;109105;-84
2022/09/20 08:28:30;;;;;;;;;;;14.70;99.90;;;;;;7340190;19;112814;-81
2022/09/20 08:31:01;;;;;;;;;;;14.80;99.90;;;;;;7339244;19;112027;-80
2022/09/20 08:33:28;;;;;;;;;;;15.00;99.90;;;;;;7342306;19;109077;-82
2022/09/20 08:35:55;;;;;;;;;;;15.00;99.90;;;;;;7340308;19;108953;-81
2022/09/20 08:38:26;;;;;;;;;;;15.10;99.90;;;;;;7346978;19;110657;-81
2022/09/20 08:41:13;;;;;;;;;;;15.20;99.90;;;;;;7341357;19;108990;-80
2022/09/20 08:43:45;;;;;;;;;;;15.40;99.90;;;;;;7341359;19;113303;-80
2022/09/20 08:46:13;;;;;;;;;;;15.40;99.90;;;;;;7341725;19;108391;-80
2022/09/20 08:48:40;;;;;;;;;;;15.50;99.90;;;;;;7342728;19;108786;-79
2022/09/20 08:51:08;;;;;;;;;;;15.60;99.90;;;;;;7338634;19;109185;-80
2022/09/20 08:53:35;;;;;;;;;;;15.70;99.90;;;;;;7342799;19;108556;-80
2022/09/20 08:56:05;;;;;;;;;;;15.80;99.90;;;;;;7340445;19;108859;-80
2022/09/20 08:58:32;;;;;;;;;;;15.90;99.90;;;;;;7341067;19;110197;-80
2022/09/20 09:00:59;;;;;;;;;;;16.00;99.90;;;;;;7349686;19;108634;-80
2022/09/20 09:03:27;;;;;;;;;;;16.10;99.90;;;;;;7338885;19;110376;-80
2022/09/20 09:05:55;;;;;;;;;;;16.30;99.90;;;;;;7338494;19;109832;-82
2022/09/20 09:08:27;;;;;;;;;;;16.50;99.90;;;;;;7339910;19;109312;-80
2022/09/20 09:10:58;;;;;;;;;;;16.60;99.90;;;;;;7340016;19;113824;-81
2022/09/20 09:13:27;;;;;;;;;;;16.80;99.90;;;;;;7341844;19;109195;-81
2022/09/20 09:15:56;;;;;;;;;;;16.90;99.90;;;;;;7342005;19;108647;-81
2022/09/20 09:18:28;;;;;;;;;;;17.00;99.90;;;;;;7342657;19;110475;-81
2022/09/20 09:20:59;;;;;;;;;;;17.10;99.90;;;;;;7341149;19;109538;-80
2022/09/20 09:23:26;;;;;;;;;;;17.20;99.90;;;;;;7343634;19;109789;-81
2022/09/20 09:25:54;;;;;;;;;;;17.30;99.90;;;;;;7338493;19;108529;-80
2022/09/20 09:28:25;;;;;;;;;;;17.30;99.90;;;;;;7339465;19;111802;-81
2022/09/20 09:31:10;;;;;;;;;;;17.30;99.90;;;;;;7337694;19;109043;-80
2022/09/20 09:33:42;;;;;;;;;;;17.30;99.90;;;;;;7340476;19;108735;-79
2022/09/20 09:36:19;;;;;;;;;;;17.30;99.90;;;;;;7341028;19;110052;-80
2022/09/20 09:38:46;;;;;;;;;;;17.40;99.90;;;;;;7340815;19;110723;-80
2022/09/20 09:41:16;;;;;;;;;;;17.40;99.90;;;;;;7338059;19;108506;-81
2022/09/20 09:43:56;;;;;;;;;;;17.40;99.90;;;;;;7336499;19;110438;-80
2022/09/20 09:46:25;;;;;;;;;;;17.40;99.90;;;;;;7337777;19;109846;-80
2022/09/20 09:49:06;;;;;;;;;;;17.40;99.90;;;;;;7340100;19;109211;-81
2022/09/20 09:51:41;;;;;;;;;;;17.40;99.90;;;;;;7339335;19;113325;-80
2022/09/20 09:54:15;;;;;;;;;;;17.40;99.90;;;;;;7339223;19;108470;-79
2022/09/20 09:56:53;;;;;;;;;;;17.40;99.90;;;;;;7342104;19;113760;-80
2022/09/20 09:59:39;;;;;;;;;;;17.40;99.90;;;;;;7336470;19;109459;-79
2022/09/20 10:02:18;;;;;;;;;;;17.40;99.90;;;;;;7338578;19;108406;-80
2022/09/20 10:04:44;;;;;;;;;;;17.50;99.90;;;;;;7340007;19;108960;-79
2022/09/20 10:07:22;;;;;;;;;;;17.50;99.90;;;;;;7341471;19;111076;-79
2022/09/20 10:10:01;;;;;;;;;;;17.60;99.90;;;;;;7339699;19;110125;-79
2022/09/20 10:12:29;;;;;;;;;;;17.60;99.90;;;;;;7340356;19;110767;-79
2022/09/20 10:15:14;;;;;;;;;;;17.70;99.90;;;;;;7337655;19;108500;-81
2022/09/20 10:17:57;;;;;;;;;;;17.80;99.90;;;;;;7341344;19;109224;-82
2022/09/20 10:20:52;;;;;;;;;;;17.80;99.90;;;;;;7338325;19;110406;-80
2022/09/20 10:23:19;;;;;;;;;;;17.90;99.90;;;;;;7334511;19;108737;-79
2022/09/20 10:26:24;;;;;;;;;;;17.90;99.90;;;;;;7336753;19;112030;-80
2022/09/20 10:28:57;;;;;;;;;;;17.90;99.90;;;;;;7338691;19;110209;-79
2022/09/20 10:31:39;;;;;;;;;;;18.00;99.90;;;;;;7343159;19;112789;-81
2022/09/20 10:34:13;;;;;;;;;;;18.10;99.90;;;;;;7338316;19;110169;-80
2022/09/20 10:36:48;;;;;;;;;;;18.10;99.90;;;;;;7339899;19;108798;-79
2022/09/20 10:39:24;;;;;;;;;;;18.20;99.90;;;;;;7337748;19;109226;-79
2022/09/20 10:44:54;;;;;;;;;;;18.30;99.90;;;;;;7337504;19;111704;-81
2022/09/20 10:47:30;;;;;;;;;;;18.40;99.90;;;;;;7337384;19;109959;-80
2022/09/20 10:49:57;;;;;;;;;;;18.60;99.90;;;;;;7339135;19;109956;-81
2022/09/20 10:52:33;;;;;;;;;;;18.70;99.90;;;;;;7332260;19;108826;-81
2022/09/20 10:55:07;;;;;;;;;;;18.70;99.90;;;;;;7341384;19;108742;-81
2022/09/20 10:57:49;;;;;;;;;;;18.70;99.90;;;;;;7336219;19;111419;-80
2022/09/20 11:00:20;;;;;;;;;;;18.80;99.90;;;;;;7344232;19;108746;-83
2022/09/20 11:02:53;;;;;;;;;;;18.90;99.90;;;;;;7343674;19;112410;-80
2022/09/20 11:05:35;;;;;;;;;;;19.00;99.90;;;;;;7344382;19;108491;-81
2022/09/20 11:08:07;;;;;;;;;;;19.20;99.90;;;;;;7342205;19;110866;-80
2022/09/20 11:10:45;;;;;;;;;;;19.30;99.90;;;;;;7343595;19;109275;-79
2022/09/20 11:13:31;;;;;;;;;;;19.40;99.90;;;;;;7345996;19;108688;-79
2022/09/20 11:16:13;;;;;;;;;;;19.50;99.90;;;;;;7343737;19;113165;-81
2022/09/20 11:18:47;;;;;;;;;;;19.60;99.90;;;;;;7347916;19;110617;-80
2022/09/20 11:21:15;;;;;;;;;;;19.70;99.90;;;;;;7343661;19;111331;-79
2022/09/20 11:23:49;;;;;;;;;;;19.80;99.90;;;;;;7342043;19;109234;-80
2022/09/20 11:26:35;;;;;;;;;;;19.80;99.90;;;;;;7342017;19;108692;-82
2022/09/20 11:29:14;;;;;;;;;;;19.70;99.90;;;;;;7343690;19;109543;-81
2022/09/20 11:31:43;;;;;;;;;;;19.60;99.90;;;;;;7342817;19;113684;-81
2022/09/20 11:34:18;;;;;;;;;;;19.60;99.90;;;;;;7345153;19;108434;-80
2022/09/20 11:36:51;;;;;;;;;;;19.70;99.90;;;;;;7341565;19;108777;-81
2022/09/20 11:39:26;;;;;;;;;;;19.80;99.90;;;;;;7343605;19;111548;-79
2022/09/20 11:41:54;;;;;;;;;;;19.80;99.90;;;;;;7349583;19;108835;-81
2022/09/20 11:44:21;;;;;;;;;;;19.80;99.90;;;;;;7340493;19;110175;-81
2022/09/20 11:46:52;;;;;;;;;;;19.70;99.90;;;;;;7343389;19;109186;-79
2022/09/20 11:49:34;;;;;;;;;;;19.80;99.90;;;;;;7344182;19;111840;-79
2022/09/20 11:52:01;;;;;;;;;;;19.90;99.90;;;;;;7343118;19;110287;-81
2022/09/20 11:54:46;;;;;;;;;;;20.00;99.90;;;;;;7340820;19;108470;-81
2022/09/20 11:57:15;;;;;;;;;;;20.10;99.90;;;;;;7343552;19;108970;-80
2022/09/20 11:59:49;;;;;;;;;;;20.20;99.90;;;;;;7345418;19;110273;-81
2022/09/20 12:02:16;;;;;;;;;;;20.30;99.90;;;;;;7341857;19;108792;-81
2022/09/20 12:04:45;;;;;;;;;;;20.30;99.90;;;;;;7346755;19;109271;-81
2022/09/20 12:07:30;;;;;;;;;;;20.20;99.90;;;;;;7339765;19;108684;-83
2022/09/20 12:10:07;;;;;;;;;;;20.10;99.90;;;;;;7338845;19;110256;-79
2022/09/20 12:12:36;;;;;;;;;;;20.20;99.90;;;;;;7343147;19;109809;-80
2022/09/20 12:15:05;;;;;;;;;;;20.30;99.90;;;;;;7341741;19;108811;-81
2022/09/20 12:17:52;;;;;;;;;;;20.40;99.90;;;;;;7342118;19;109173;-83
2022/09/20 12:20:31;;;;;;;;;;;20.50;99.90;;;;;;7338546;19;114198;-81
2022/09/20 12:23:17;;;;;;;;;;;20.50;99.90;;;;;;7343376;19;108687;-83
2022/09/20 12:25:59;;;;;;;;;;;20.40;99.90;;;;;;7347470;19;111022;-80
2022/09/20 12:28:33;;;;;;;;;;;20.30;99.90;;;;;;7343745;19;108699;-80
2022/09/20 12:31:21;;;;;;;;;;;20.10;99.90;;;;;;7342863;19;109817;-81
2022/09/20 12:33:58;;;;;;;;;;;20.00;99.90;;;;;;7343591;19;111115;-80
2022/09/20 12:36:35;;;;;;;;;;;19.80;99.90;;;;;;7343068;19;108634;-84
2022/09/20 12:39:05;;;;;;;;;;;19.70;99.90;;;;;;7342212;19;109403;-81
2022/09/20 12:41:53;;;;;;;;;;;19.50;99.90;;;;;;7344345;19;110267;-80
2022/09/20 12:44:31;;;;;;;;;;;19.30;99.90;;;;;;7338150;19;108676;-81
2022/09/20 12:47:07;;;;;;;;;;;19.20;99.90;;;;;;7341806;19;111507;-81
2022/09/20 12:55:11;;;;;;;;;;;18.90;99.90;;;;;;7340999;19;110270;-81
2022/09/20 12:57:39;;;;;;;;;;;18.80;99.90;;;;;;7341916;19;108960;-82
2022/09/20 13:00:07;;;;;;;;;;;18.80;99.90;;;;;;7341872;19;110306;-82
2022/09/20 13:02:50;;;;;;;;;;;18.70;99.90;;;;;;7341402;19;108878;-81
2022/09/20 13:05:31;;;;;;;;;;;18.70;99.90;;;;;;7341730;19;108747;-80
2022/09/20 13:08:01;;;;;;;;;;;18.60;99.90;;;;;;7343509;19;109987;-81
2022/09/20 13:10:30;;;;;;;;;;;18.60;99.90;;;;;;7341043;19;110581;-81
2022/09/20 13:12:59;;;;;;;;;;;18.50;99.90;;;;;;7347242;19;108721;-81
2022/09/20 13:15:27;;;;;;;;;;;18.50;99.90;;;;;;7337733;19;109248;-81
2022/09/20 13:17:55;;;;;;;;;;;18.50;99.90;;;;;;7341560;19;108577;-81
2022/09/20 13:20:28;;;;;;;;;;;18.60;99.90;;;;;;7339949;18;109212;-80
2022/09/20 13:22:56;;;;;;;;;;;18.60;99.90;;;;;;7340207;19;109204;-81
2022/09/20 13:25:27;;;;;;;;;;;18.50;99.90;;;;;;7338789;19;108569;-81
2022/09/20 13:28:08;;;;;;;;;;;18.30;99.90;;;;;;7341067;19;108473;-83
2022/09/20 13:30:35;;;;;;;;;;;18.20;99.90;;;;;;7337259;19;112829;-82
2022/09/20 13:33:16;;;;;;;;;;;18.10;99.90;;;;;;7341393;19;111143;-81
2022/09/20 13:35:45;;;;;;;;;;;18.00;99.90;;;;;;7345413;19;113292;-81
2022/09/20 13:38:21;;;;;;;;;;;17.90;99.90;;;;;;7341246;19;109994;-81
2022/09/20 13:40:48;;;;;;;;;;;17.80;99.90;;;;;;7339018;19;109551;-81
2022/09/20 13:43:35;;;;;;;;;;;17.80;99.90;;;;;;7341273;19;112466;-80
2022/09/20 13:46:12;;;;;;;;;;;17.80;99.90;;;;;;7340208;19;108421;-82
2022/09/20 13:48:39;;;;;;;;;;;17.70;99.90;;;;;;7340489;19;109766;-82
2022/09/20 13:51:23;;;;;;;;;;;17.70;99.90;;;;;;7339451;19;110181;-81
2022/09/20 13:53:50;;;;;;;;;;;17.60;99.90;;;;;;7342372;19;108597;-81
2022/09/20 13:56:20;;;;;;;;;;;17.50;99.90;;;;;;7339720;19;109190;-80
2022/09/20 13:58:47;;;;;;;;;;;17.50;99.90;;;;;;7346313;19;109098;-81
2022/09/20 14:01:28;;;;;;;;;;;17.60;99.90;;;;;;7340408;19;112217;-81
2022/09/20 14:04:01;;;;;;;;;;;17.70;99.90;;;;;;7339041;19;109304;-82
2022/09/20 14:06:28;;;;;;;;;;;17.60;99.90;;;;;;7339082;19;109115;-81
2022/09/20 14:08:55;;;;;;;;;;;17.70;99.90;;;;;;7337336;19;108863;-82
2022/09/20 14:11:24;;;;;;;;;;;17.70;99.90;;;;;;7338039;19;110594;-82
2022/09/20 14:13:56;;;;;;;;;;;17.60;99.90;;;;;;7338258;19;108653;-81
2022/09/20 14:16:27;;;;;;;;;;;17.70;99.90;;;;;;7338850;19;109369;-81
2022/09/20 14:18:54;;;;;;;;;;;17.60;99.90;;;;;;7336407;19;110004;-81
2022/09/20 14:21:30;;;;;;;;;;;17.60;99.90;;;;;;7343409;19;108949;-82
2022/09/20 14:24:01;;;;;;;;;;;17.60;99.90;;;;;;7338921;19;110787;-82
2022/09/20 14:26:35;;;;;;;;;;;17.60;99.90;;;;;;7338368;19;109168;-81
2022/09/20 14:29:20;;;;;;;;;;;17.40;99.90;;;;;;7339230;19;108536;-82
2022/09/20 14:31:47;;;;;;;;;;;17.40;99.90;;;;;;7337068;19;110540;-82
2022/09/20 14:34:14;;;;;;;;;;;17.20;99.90;;;;;;7337250;19;108546;-80
2022/09/20 14:36:41;;;;;;;;;;;17.20;99.90;;;;;;7338459;19;109405;-82
2022/09/20 14:39:12;;;;;;;;;;;17.20;99.90;;;;;;7339222;19;109539;-81
2022/09/20 14:41:40;;;;;;;;;;;17.20;99.90;;;;;;7340719;19;109436;-82
2022/09/20 14:44:29;;;;;;;;;;;17.30;99.90;;;;;;7330456;19;109739;-81
2022/09/20 14:46:56;;;;;;;;;;;17.40;99.90;;;;;;7326502;19;108614;-82
2022/09/20 14:49:24;;;;;;;;;;;17.50;99.90;;;;;;7333431;19;109614;-82
2022/09/20 14:52:13;;;;;;;;;;;17.50;99.90;;;;;;7331961;19;110249;-82
2022/09/20 14:54:40;;;;;;;;;;;17.50;99.90;;;;;;7331182;19;109057;-81
2022/09/20 14:57:07;;;;;;;;;;;17.40;99.90;;;;;;7337101;19;110687;-82
2022/09/20 14:59:35;;;;;;;;;;;17.40;99.90;;;;;;7336494;19;110192;-82
2022/09/20 15:02:02;;;;;;;;;;;17.40;99.90;;;;;;7337274;19;109017;-81